Impacts TAF Board
For situational awareness. Not to be used for flight planning purposes.
IDs:

KDUJ - Du Bois Rgnl, PA, US

Issued at 0520 UTC 07 Dec 2022
Updated at 0638 UTC 07 Dec 2022
Potential Impact None Slight Moderate High
Time<<07/19Z 07/20Z 07/21Z 07/22Z 07/23Z 08/00Z 08/01Z 08/02Z 08/03Z 08/04Z 08/05Z 08/06Z 08/07Z>>
Type PRVL PRVL PRVL PRVL PRVL PRVL PRVL PRVL PRVL PRVL PRVL
VIS 2 2 2 2 2 3 3 3 3 3 3
CIG 3 3 3 3 3 4 4 4 4 4 4
Cover OVC OVC OVC OVC OVC OVC OVC OVC OVC OVC OVC
FltCat LIFR LIFR LIFR LIFR LIFR LIFR LIFR LIFR LIFR LIFR LIFR
WX BR BR BR BR BR BR BR BR BR BR BR
WDir 290 290 290 290 290 330 330 330 330 330 330
WSpd 5 5 5 5 5 5 5 5 5 5 5
WGst -- -- -- -- -- -- -- -- -- -- --
WSHgt -- -- -- -- -- -- -- -- -- -- --
WSDir -- -- -- -- -- -- -- -- -- -- --
WSSpd -- -- -- -- -- -- -- -- -- -- --
Raw TAF
KDUJ 070520Z 0706/0806 17005KT 1/2SM -DZ FG OVC002
  TEMPO 0707/0711 1/4SM -RA FG
  FM071500 25005KT 3/4SM -DZ BR OVC002
  FM071900 29005KT 2SM BR OVC003
  FM080000 33005KT 3SM BR OVC004


METAR Board
Radar Display
Forecast Discussion
For situational awareness. Not to be used for flight planning purposes.